createdAt,value
2018-09-22T00:00:32.906Z,99337.86
2018-09-22T00:03:02.409Z,99356.97
2018-09-22T00:05:32.353Z,99363.84
2018-09-22T00:08:01.646Z,99360.30
2018-09-22T00:10:31.086Z,99367.42
2018-09-22T00:13:00.747Z,99366.38
2018-09-22T00:15:30.198Z,99357.94
2018-09-22T00:17:59.783Z,99371.59
2018-09-22T00:20:29.287Z,99379.69
2018-09-22T00:22:59.071Z,99372.39
2018-09-22T00:25:28.721Z,99374.41
2018-09-22T00:27:58.914Z,99399.39
2018-09-22T00:30:28.485Z,99401.47
2018-09-22T00:32:58.012Z,99381.19
2018-09-22T00:35:27.516Z,99383.03
2018-09-22T00:37:57.417Z,99392.69
2018-09-22T00:40:26.937Z,99397.55
2018-09-22T00:42:56.728Z,99394.80
2018-09-22T00:45:26.476Z,99396.12
2018-09-22T00:47:56.225Z,99394.28
2018-09-22T00:50:25.947Z,99383.44
2018-09-22T00:52:56.165Z,99340.95
2018-09-22T00:55:26.213Z,99396.58
2018-09-22T00:57:56.403Z,99439.43
2018-09-22T01:00:26.060Z,99398.11
2018-09-22T01:02:55.679Z,99424.17
2018-09-22T01:05:25.283Z,99411.06
2018-09-22T01:07:55.247Z,99436.92
2018-09-22T01:10:25.081Z,99412.00
2018-09-22T01:12:54.593Z,99431.98
2018-09-22T01:15:24.981Z,99431.30
2018-09-22T01:17:54.686Z,99426.56
2018-09-22T01:20:24.310Z,99419.75
2018-09-22T01:22:54.201Z,99438.45
2018-09-22T01:25:23.955Z,99447.88
2018-09-22T01:27:53.513Z,99444.27
2018-09-22T01:30:24.149Z,99513.19
2018-09-22T01:32:53.512Z,99435.64
2018-09-22T01:35:23.246Z,99452.19
2018-09-22T01:37:52.836Z,99461.61
2018-09-22T01:40:22.594Z,99464.04
2018-09-22T01:42:52.335Z,99472.63
2018-09-22T01:45:22.323Z,99475.16
2018-09-22T01:47:51.826Z,99478.92
2018-09-22T01:50:21.450Z,99482.88
2018-09-22T01:52:51.176Z,99484.41
2018-09-22T01:55:21.138Z,99508.06
2018-09-22T01:57:50.679Z,99491.50
2018-09-22T02:00:20.288Z,99522.28
2018-09-22T02:02:49.675Z,99510.80
2018-09-22T02:05:19.097Z,99506.32
2018-09-22T02:07:48.788Z,99515.05
2018-09-22T02:10:18.143Z,99519.73
2018-09-22T02:12:47.713Z,99530.72
2018-09-22T02:15:17.316Z,99531.14
2018-09-22T02:17:46.849Z,99537.06
2018-09-22T02:20:16.187Z,99537.92
2018-09-22T02:22:46.044Z,99536.29
2018-09-22T02:25:15.477Z,99537.23
2018-09-22T02:27:44.844Z,99542.45
2018-09-22T02:30:15.944Z,99542.69
2018-09-22T02:32:45.350Z,99530.44
2018-09-22T02:35:14.656Z,99553.70
2018-09-22T02:37:44.569Z,99566.81
2018-09-22T02:40:14.068Z,99550.44
2018-09-22T02:42:43.737Z,99558.37
2018-09-22T02:45:13.515Z,99562.85
2018-09-22T02:47:42.911Z,99580.64
2018-09-22T02:50:12.323Z,99591.31
2018-09-22T02:52:42.108Z,99563.92
2018-09-22T02:55:11.577Z,99593.95
2018-09-22T02:57:41.162Z,99598.63
2018-09-22T03:00:10.988Z,99588.48
2018-09-22T03:02:40.578Z,99616.16
2018-09-22T03:05:10.226Z,99612.97
2018-09-22T03:07:40.046Z,99627.23
2018-09-22T03:10:10.538Z,99620.89
2018-09-22T03:12:40.445Z,99639.02
2018-09-22T03:15:10.032Z,99632.58
2018-09-22T03:17:39.711Z,99628.49
2018-09-22T03:20:09.416Z,99661.22
2018-09-22T03:22:38.972Z,99641.77
2018-09-22T03:25:08.741Z,99635.70
2018-09-22T03:27:38.448Z,99654.43
2018-09-22T03:30:08.121Z,99671.79
2018-09-22T03:32:37.904Z,99669.86
2018-09-22T03:35:07.544Z,99665.48
2018-09-22T03:37:36.969Z,99663.67
2018-09-22T03:40:06.745Z,99674.34
2018-09-22T03:42:36.388Z,99521.34
2018-09-22T03:45:05.943Z,99678.59
2018-09-22T03:47:35.401Z,99695.87
2018-09-22T03:50:05.096Z,99696.77
2018-09-22T03:52:34.605Z,99681.95
2018-09-22T03:55:04.113Z,99717.11
2018-09-22T03:57:33.639Z,99724.23
2018-09-22T04:00:03.167Z,99709.40
2018-09-22T04:02:32.478Z,99718.73
2018-09-22T04:05:01.984Z,99716.39
2018-09-22T04:07:31.443Z,99726.16
2018-09-22T04:10:00.859Z,99729.01
2018-09-22T04:12:30.480Z,99739.81
2018-09-22T04:14:59.977Z,99749.13
2018-09-22T04:17:29.304Z,99745.58
2018-09-22T04:19:59.060Z,99768.88
2018-09-22T04:22:28.331Z,99745.76
2018-09-22T04:24:57.673Z,99763.11
2018-09-22T04:27:27.481Z,99774.63
2018-09-22T04:29:56.912Z,99784.30
2018-09-22T04:32:26.298Z,99783.16
2018-09-22T04:34:56.446Z,99792.50
2018-09-22T04:37:25.759Z,99781.52
2018-09-22T04:39:55.149Z,99800.73
2018-09-22T04:42:25.919Z,99764.72
2018-09-22T04:44:55.379Z,99804.52
2018-09-22T04:47:24.926Z,99808.99
2018-09-22T04:49:54.971Z,99816.07
2018-09-22T04:52:24.530Z,99814.16
2018-09-22T04:54:54.288Z,99813.34
2018-09-22T04:57:24.300Z,99808.88
2018-09-22T04:59:53.669Z,99830.94
2018-09-22T05:02:23.365Z,99837.57
2018-09-22T05:04:53.173Z,99832.85
2018-09-22T05:07:23.543Z,99838.14
2018-09-22T05:09:53.011Z,99857.59
2018-09-22T05:12:22.633Z,99858.04
2018-09-22T05:14:51.928Z,99854.97
2018-09-22T05:17:21.522Z,99859.19
2018-09-22T05:19:51.024Z,99863.63
2018-09-22T05:22:21.370Z,99880.21
2018-09-22T05:24:51.073Z,99873.09
2018-09-22T05:27:21.734Z,99880.86
2018-09-22T05:29:51.406Z,99883.58
2018-09-22T05:32:21.076Z,99881.14
2018-09-22T05:34:50.973Z,99870.66
2018-09-22T05:37:20.459Z,99885.19
2018-09-22T05:39:49.883Z,99898.17
2018-09-22T05:42:19.296Z,99900.00
2018-09-22T05:44:48.598Z,99924.59
2018-09-22T05:47:18.234Z,99914.80
2018-09-22T05:49:47.812Z,99917.52
2018-09-22T05:52:17.451Z,99924.20
2018-09-22T05:54:46.921Z,99928.08
2018-09-22T05:57:16.662Z,99930.56
2018-09-22T05:59:46.187Z,99934.34
2018-09-22T06:02:15.541Z,99947.97
2018-09-22T06:04:45.338Z,99946.89
2018-09-22T06:07:14.836Z,99941.92
2018-09-22T06:09:44.392Z,99944.98
2018-09-22T06:12:13.872Z,99963.79
2018-09-22T06:14:43.260Z,99961.73
2018-09-22T06:17:12.877Z,99961.59
2018-09-22T06:19:42.422Z,99976.48
2018-09-22T06:22:11.936Z,99991.45
2018-09-22T06:24:41.521Z,99976.27
2018-09-22T06:27:11.102Z,99991.19
2018-09-22T06:29:40.387Z,99985.45
2018-09-22T06:32:09.740Z,99989.20
2018-09-22T06:34:39.397Z,99981.59
2018-09-22T06:37:08.801Z,100001.41
2018-09-22T06:39:38.521Z,99988.70
2018-09-22T06:42:07.913Z,99998.88
2018-09-22T06:44:37.362Z,99894.84
2018-09-22T06:47:07.169Z,100009.41
2018-09-22T06:49:36.711Z,100001.81
2018-09-22T06:52:07.636Z,100020.59
2018-09-22T06:54:37.655Z,100031.66
2018-09-22T06:57:07.320Z,100025.95
2018-09-22T06:59:36.833Z,100037.72
2018-09-22T07:02:07.072Z,100030.48
2018-09-22T07:04:36.784Z,100035.75
2018-09-22T07:07:07.494Z,100048.33
2018-09-22T07:09:37.008Z,100052.48
2018-09-22T07:12:06.441Z,100045.84
2018-09-22T07:14:36.114Z,100043.38
2018-09-22T07:17:06.181Z,100046.84
2018-09-22T07:19:35.749Z,100047.02
2018-09-22T07:22:10.203Z,100055.12
2018-09-22T07:24:40.009Z,100050.40
2018-09-22T07:27:09.590Z,100073.86
2018-09-22T07:29:39.132Z,100071.20
2018-09-22T07:32:09.135Z,100078.48
2018-09-22T07:34:38.664Z,100069.89
2018-09-22T07:37:08.411Z,100075.10
2018-09-22T07:39:38.030Z,100076.61
2018-09-22T07:42:08.256Z,100071.19
2018-09-22T07:44:37.836Z,100086.36
2018-09-22T07:47:07.588Z,100125.27
2018-09-22T07:49:37.105Z,100119.38
2018-09-22T07:52:07.166Z,100118.37
2018-09-22T07:54:36.650Z,100111.92
2018-09-22T07:57:06.171Z,100113.86
2018-09-22T07:59:35.876Z,100124.30
2018-09-22T08:02:06.429Z,100118.95
2018-09-22T08:04:35.850Z,100116.66
2018-09-22T08:07:05.360Z,100118.22
2018-09-22T08:09:34.964Z,100111.29
2018-09-22T08:12:05.378Z,100136.22
2018-09-22T08:14:34.769Z,100135.81
2018-09-22T08:17:05.524Z,100152.02
2018-09-22T08:19:34.952Z,100148.45
2018-09-22T08:22:04.570Z,100152.73
2018-09-22T08:24:34.916Z,100146.92
2018-09-22T08:27:04.749Z,100148.68
2018-09-22T08:29:34.492Z,100148.12
2018-09-22T08:32:04.563Z,100152.45
2018-09-22T08:34:34.419Z,100153.07
2018-09-22T08:37:04.693Z,100164.27
2018-09-22T08:39:34.855Z,100167.52
2018-09-22T08:42:04.900Z,100177.47
2018-09-22T08:44:34.607Z,100158.50
2018-09-22T08:47:07.800Z,100174.61
2018-09-22T08:49:38.236Z,100170.72
2018-09-22T08:52:07.766Z,100170.03
2018-09-22T08:54:37.113Z,100176.89
2018-09-22T08:57:06.724Z,100174.25
2018-09-22T08:59:36.807Z,100166.08
2018-09-22T09:02:06.400Z,100181.98
2018-09-22T09:04:36.038Z,100177.47
2018-09-22T09:07:07.094Z,100173.39
2018-09-22T09:09:37.340Z,100170.86
2018-09-22T09:12:07.554Z,100170.64
2018-09-22T09:14:36.930Z,100175.66
2018-09-22T09:17:07.085Z,100180.94
2018-09-22T09:19:37.416Z,100181.17
2018-09-22T09:22:07.842Z,100189.56
2018-09-22T09:24:38.050Z,100170.28
2018-09-22T09:27:08.180Z,100174.55
2018-09-22T09:29:38.545Z,100178.75
2018-09-22T09:32:08.310Z,100184.16
2018-09-22T09:34:37.788Z,100192.30
2018-09-22T09:37:07.386Z,100200.38
2018-09-22T09:39:37.039Z,100193.89
2018-09-22T09:42:06.552Z,100181.81
2018-09-22T09:44:36.146Z,100198.94
2018-09-22T09:47:05.755Z,100192.59
2018-09-22T09:49:35.050Z,100206.05
2018-09-22T09:52:05.109Z,100192.98
2018-09-22T09:54:35.113Z,100187.38
2018-09-22T09:57:04.689Z,100195.94
2018-09-22T09:59:34.354Z,100194.03
2018-09-22T10:02:03.958Z,100207.38
2018-09-22T10:04:34.104Z,100201.89
2018-09-22T10:07:03.784Z,100190.05
2018-09-22T10:09:33.539Z,100207.40
2018-09-22T10:12:03.012Z,100221.82
2018-09-22T10:14:32.643Z,100213.97
2018-09-22T10:17:02.388Z,100218.08
2018-09-22T10:19:32.237Z,100224.72
2018-09-22T10:22:01.732Z,100222.78
2018-09-22T10:24:31.695Z,100220.89
2018-09-22T10:27:01.772Z,100219.76
2018-09-22T10:29:31.301Z,100218.48
2018-09-22T10:32:01.283Z,100225.38
2018-09-22T10:34:31.136Z,100206.89
2018-09-22T10:37:00.582Z,100200.84
2018-09-22T10:39:30.394Z,100220.30
2018-09-22T10:41:59.626Z,100231.92
2018-09-22T10:44:29.454Z,100229.94
2018-09-22T10:46:59.032Z,100232.70
2018-09-22T10:49:28.478Z,100236.58
2018-09-22T10:51:57.832Z,100220.01
2018-09-22T10:54:27.475Z,100230.55
2018-09-22T10:56:57.189Z,100224.67
2018-09-22T10:59:26.955Z,100222.66
2018-09-22T11:01:56.865Z,100219.77
2018-09-22T11:04:26.221Z,100209.89
2018-09-22T11:06:55.566Z,100202.14
2018-09-22T11:09:24.956Z,100218.47
2018-09-22T11:11:54.533Z,100207.79
2018-09-22T11:14:24.714Z,100204.17
2018-09-22T11:16:54.383Z,100207.97
2018-09-22T11:19:25.148Z,100219.42
2018-09-22T11:21:54.523Z,100204.41
2018-09-22T11:24:25.141Z,100220.94
2018-09-22T11:26:55.214Z,100242.50
2018-09-22T11:29:25.776Z,100233.67
2018-09-22T11:31:55.699Z,100242.53
2018-09-22T11:34:25.165Z,100248.20
2018-09-22T11:36:54.801Z,100247.13
2018-09-22T11:39:24.702Z,100260.22
2018-09-22T11:41:54.500Z,100251.98
2018-09-22T11:44:24.610Z,100246.87
2018-09-22T11:46:54.642Z,100249.58
2018-09-22T11:49:24.592Z,100234.33
2018-09-22T11:51:53.911Z,100226.08
2018-09-22T11:54:23.740Z,100230.36
2018-09-22T11:56:53.569Z,100235.66
2018-09-22T11:59:23.346Z,100228.78
2018-09-22T12:01:52.948Z,100246.05
2018-09-22T12:04:22.766Z,100235.43
2018-09-22T12:06:52.304Z,100224.33
2018-09-22T12:09:22.304Z,100242.13
2018-09-22T12:11:51.835Z,100249.28
2018-09-22T12:14:21.641Z,100253.91
2018-09-22T12:16:51.174Z,100238.16
2018-09-22T12:19:20.518Z,100242.67
2018-09-22T12:21:49.900Z,100250.24
2018-09-22T12:24:19.436Z,100241.48
2018-09-22T12:26:48.789Z,100232.27
2018-09-22T12:29:18.557Z,100251.98
2018-09-22T12:31:48.307Z,100236.39
2018-09-22T12:34:17.810Z,100241.03
2018-09-22T12:36:47.323Z,100290.73
2018-09-22T12:39:17.336Z,100277.28
2018-09-22T12:41:46.612Z,100291.02
2018-09-22T12:44:16.021Z,100276.95
2018-09-22T12:46:46.005Z,100297.31
2018-09-22T12:49:15.658Z,100297.72
2018-09-22T12:51:45.204Z,100281.86
2018-09-22T12:54:14.736Z,100290.38
2018-09-22T12:56:44.436Z,100290.25
2018-09-22T12:59:14.109Z,100276.38
2018-09-22T13:01:43.864Z,100284.20
2018-09-22T13:04:13.403Z,100297.92
2018-09-22T13:06:42.757Z,100292.77
2018-09-22T13:09:12.791Z,100284.41
2018-09-22T13:11:42.274Z,100283.95
2018-09-22T13:14:11.704Z,100274.64
2018-09-22T13:16:41.229Z,100273.33
2018-09-22T13:19:10.641Z,100269.92
2018-09-22T13:21:40.205Z,100262.41
2018-09-22T13:24:09.909Z,100253.66
2018-09-22T13:26:39.464Z,100268.70
2018-09-22T13:29:09.160Z,100284.90
2018-09-22T13:31:38.610Z,100270.31
2018-09-22T13:34:08.544Z,100267.79
2018-09-22T13:36:38.402Z,100257.27
2018-09-22T13:39:12.228Z,100271.81
2018-09-22T13:41:42.023Z,100273.25
2018-09-22T13:44:12.309Z,100297.31
2018-09-22T13:46:42.322Z,100295.28
2018-09-22T13:49:11.842Z,100306.70
2018-09-22T13:51:41.885Z,100303.90
2018-09-22T13:54:11.652Z,100309.23
2018-09-22T13:56:41.611Z,100306.13
2018-09-22T13:59:12.781Z,100312.48
2018-09-22T14:01:42.397Z,100301.13
2018-09-22T14:04:12.937Z,100307.25
2018-09-22T14:06:43.042Z,100301.25
2018-09-22T14:09:13.387Z,100302.18
2018-09-22T14:11:43.452Z,100280.97
2018-09-22T14:14:13.453Z,100290.48
2018-09-22T14:16:43.082Z,100291.18
2018-09-22T14:19:13.635Z,100286.14
2018-09-22T14:21:44.510Z,100279.09
2018-09-22T14:24:15.290Z,100267.13
2018-09-22T14:26:44.897Z,100257.58
2018-09-22T14:29:15.090Z,100273.73
2018-09-22T14:31:44.840Z,100267.46
2018-09-22T14:34:14.600Z,100269.73
2018-09-22T14:36:44.351Z,100259.59
2018-09-22T14:39:14.827Z,100268.73
2018-09-22T14:41:44.485Z,100265.64
2018-09-22T14:44:14.731Z,100246.17
2018-09-22T14:46:45.439Z,100242.11
2018-09-22T14:49:15.401Z,100252.36
2018-09-22T14:51:45.525Z,100257.87
2018-09-22T14:54:15.384Z,100228.89
2018-09-22T14:56:45.010Z,100240.27
2018-09-22T14:59:14.536Z,100243.21
2018-09-22T15:01:44.596Z,100235.12
2018-09-22T15:04:14.196Z,100223.42
2018-09-22T15:06:44.194Z,100226.16
2018-09-22T15:09:13.724Z,100225.47
2018-09-22T15:11:44.399Z,100224.48
2018-09-22T15:14:14.192Z,100243.05
2018-09-22T15:16:44.084Z,100256.45
2018-09-22T15:19:13.429Z,100269.16
2018-09-22T15:21:43.024Z,100266.19
2018-09-22T15:24:13.147Z,100278.11
2018-09-22T15:26:42.492Z,100266.03
2018-09-22T15:29:11.976Z,100238.02
2018-09-22T15:31:41.767Z,100261.13
2018-09-22T15:34:11.259Z,100255.54
2018-09-22T15:36:40.684Z,100262.84
2018-09-22T15:39:10.596Z,100252.77
2018-09-22T15:41:41.457Z,100255.19
2018-09-22T15:44:11.400Z,100255.39
2018-09-22T15:46:41.622Z,100249.14
2018-09-22T15:49:12.162Z,100254.42
2018-09-22T15:51:41.889Z,100241.31
2018-09-22T15:54:12.873Z,100232.48
2018-09-22T15:56:42.713Z,100235.61
2018-09-22T15:59:12.676Z,100232.14
2018-09-22T16:01:42.888Z,100223.83
2018-09-22T16:04:12.262Z,100223.09
2018-09-22T16:06:41.937Z,100209.82
2018-09-22T16:09:12.073Z,100214.16
2018-09-22T16:11:41.751Z,100215.78
2018-09-22T16:14:11.395Z,100199.85
2018-09-22T16:16:41.112Z,100195.75
2018-09-22T16:19:11.253Z,100190.48
2018-09-22T16:21:40.833Z,100201.75
2018-09-22T16:24:10.446Z,100189.34
2018-09-22T16:26:40.333Z,100183.98
2018-09-22T16:29:09.968Z,100196.17
2018-09-22T16:31:39.668Z,100187.62
2018-09-22T16:34:10.138Z,100167.58
2018-09-22T16:36:40.030Z,100189.41
2018-09-22T16:39:10.788Z,100175.63
2018-09-22T16:41:40.838Z,100174.84
2018-09-22T16:44:10.772Z,100174.12
2018-09-22T16:46:40.534Z,100159.33
2018-09-22T16:49:10.501Z,100174.60
2018-09-22T16:51:40.501Z,100170.70
2018-09-22T16:54:10.149Z,100176.80
2018-09-22T16:56:40.061Z,100174.08
2018-09-22T16:59:09.672Z,100173.93
2018-09-22T17:01:40.592Z,100169.37
2018-09-22T17:04:11.140Z,100178.07
2018-09-22T17:06:40.926Z,100180.91
2018-09-22T17:09:11.132Z,100167.03
2018-09-22T17:11:41.294Z,100155.84
2018-09-22T17:14:11.641Z,100155.78
2018-09-22T17:16:41.953Z,100152.21
2018-09-22T17:19:11.636Z,100160.23
2018-09-22T17:21:41.592Z,100143.58
2018-09-22T17:24:11.600Z,100138.14
2018-09-22T17:26:42.010Z,100134.52
2018-09-22T17:29:11.540Z,100134.41
2018-09-22T17:31:41.222Z,100132.31
2018-09-22T17:34:10.885Z,100130.99
2018-09-22T17:36:40.524Z,100151.23
2018-09-22T17:39:10.908Z,100143.26
2018-09-22T17:41:40.700Z,100152.92
2018-09-22T17:44:10.297Z,100138.91
2018-09-22T17:46:40.120Z,100138.69
2018-09-22T17:49:09.882Z,100144.09
2018-09-22T17:51:39.486Z,100145.90
2018-09-22T17:54:09.050Z,100143.97
2018-09-22T17:56:38.782Z,100137.86
2018-09-22T17:59:08.392Z,100138.65
2018-09-22T18:01:37.821Z,100145.69
2018-09-22T18:04:07.620Z,100142.61
2018-09-22T18:06:37.220Z,100150.19
2018-09-22T18:09:08.894Z,100134.25
2018-09-22T18:11:39.349Z,100136.84
2018-09-22T18:14:09.048Z,100121.81
2018-09-22T18:16:38.519Z,100119.61
2018-09-22T18:19:07.857Z,100113.95
2018-09-22T18:21:38.016Z,100108.50
2018-09-22T18:24:07.503Z,100113.67
2018-09-22T18:26:37.245Z,100107.83
2018-09-22T18:29:06.934Z,100094.19
2018-09-22T18:31:36.872Z,100096.08
2018-09-22T18:34:07.695Z,100096.30
2018-09-22T18:36:37.849Z,100096.25
2018-09-22T18:39:08.947Z,100102.09
2018-09-22T18:41:39.159Z,100091.70
2018-09-22T18:44:09.105Z,100089.45
2018-09-22T18:46:39.094Z,100099.11
2018-09-22T18:49:09.442Z,100096.41
2018-09-22T18:51:39.402Z,100105.00
2018-09-22T18:54:10.660Z,100100.35
2018-09-22T18:56:43.931Z,100100.01
2018-09-22T18:59:14.639Z,100119.30
2018-09-22T19:01:45.555Z,100103.41
2018-09-22T19:04:15.678Z,100109.53
2018-09-22T19:06:46.544Z,100107.58
2018-09-22T19:09:38.468Z,100114.55
2018-09-22T19:12:21.799Z,100112.95
2018-09-22T19:14:57.820Z,100123.80
2018-09-22T19:17:55.137Z,100114.05
2018-09-22T19:20:30.252Z,100121.22
2018-09-22T19:23:03.711Z,100131.80
2018-09-22T19:25:50.135Z,100121.17
2018-09-22T19:28:40.872Z,100128.27
2018-09-22T19:31:14.662Z,100125.20
2018-09-22T19:33:47.528Z,100138.34
2018-09-22T19:36:24.265Z,100137.45
2018-09-22T19:38:59.319Z,100133.93
2018-09-22T19:41:36.116Z,100143.23
2018-09-22T19:45:14.146Z,100144.63
2018-09-22T19:47:52.456Z,100142.63
2018-09-22T19:50:27.597Z,100141.91
2018-09-22T19:52:57.290Z,100154.38
2018-09-22T19:55:27.729Z,100155.70
2018-09-22T19:57:57.329Z,100154.83
2018-09-22T20:00:26.894Z,100154.00
2018-09-22T20:02:56.750Z,100158.34
2018-09-22T20:05:26.251Z,100151.98
2018-09-22T20:07:56.230Z,100158.48
2018-09-22T20:10:25.819Z,100164.02
2018-09-22T20:12:55.686Z,100177.39
2018-09-22T20:15:25.411Z,100162.86
2018-09-22T20:17:55.634Z,100168.59
2018-09-22T20:20:25.040Z,100182.20
2018-09-22T20:22:54.794Z,100167.72
2018-09-22T20:25:24.507Z,100165.58
2018-09-22T20:27:54.500Z,100159.10
2018-09-22T20:30:25.025Z,100166.13
2018-09-22T20:32:54.609Z,100151.04
2018-09-22T20:35:24.402Z,100161.92
2018-09-22T20:37:54.228Z,100143.94
2018-09-22T20:40:24.334Z,100143.05
2018-09-22T20:42:54.614Z,100155.56
2018-09-22T20:45:24.489Z,100156.82
2018-09-22T20:47:54.219Z,100180.50
2018-09-22T20:50:23.986Z,100161.94
2018-09-22T20:52:53.791Z,100173.38
2018-09-22T20:55:23.964Z,100162.36
2018-09-22T20:57:53.856Z,100178.61
2018-09-22T21:00:23.962Z,100183.33
2018-09-22T21:02:53.659Z,100173.26
2018-09-22T21:05:23.776Z,100177.66
2018-09-22T21:07:55.031Z,100180.80
2018-09-22T21:10:25.253Z,100181.69
2018-09-22T21:12:55.915Z,100179.37
2018-09-22T21:15:25.810Z,100186.73
2018-09-22T21:17:55.827Z,100184.63
2018-09-22T21:20:25.808Z,100192.30
2018-09-22T21:22:55.554Z,100188.34
2018-09-22T21:25:25.539Z,100192.68
2018-09-22T21:27:55.414Z,100183.50
2018-09-22T21:30:24.791Z,100182.67
2018-09-22T21:32:54.416Z,100194.20
2018-09-22T21:35:25.092Z,100194.95
2018-09-22T21:37:54.925Z,100196.45
2018-09-22T21:40:25.666Z,100209.23
2018-09-22T21:42:55.045Z,100176.44
2018-09-22T21:45:25.624Z,100207.41
2018-09-22T21:47:55.401Z,100213.52
2018-09-22T21:50:24.982Z,100208.53
2018-09-22T21:52:54.583Z,100217.02
2018-09-22T21:55:24.713Z,100217.65
2018-09-22T21:57:53.956Z,100216.28
2018-09-22T22:00:23.570Z,100216.33
2018-09-22T22:02:53.088Z,100222.00
2018-09-22T22:05:23.466Z,100229.93
2018-09-22T22:07:53.083Z,100225.97
2018-09-22T22:10:22.611Z,100237.86
2018-09-22T22:12:52.248Z,100247.20
2018-09-22T22:15:22.578Z,100250.73
2018-09-22T22:17:52.460Z,100230.03
2018-09-22T22:20:22.374Z,100230.42
2018-09-22T22:22:51.818Z,100232.24
2018-09-22T22:25:21.455Z,100232.37
2018-09-22T22:27:51.048Z,100226.36
2018-09-22T22:30:20.445Z,100244.69
2018-09-22T22:32:49.926Z,100241.99
2018-09-22T22:35:19.512Z,100243.63
2018-09-22T22:37:48.729Z,100250.80
2018-09-22T22:40:18.069Z,100247.88
2018-09-22T22:42:47.473Z,100234.67
2018-09-22T22:45:16.993Z,100249.20
2018-09-22T22:47:46.478Z,100254.25
2018-09-22T22:50:16.277Z,100248.43
2018-09-22T22:52:45.862Z,100235.59
2018-09-22T22:55:16.456Z,100242.66
2018-09-22T22:57:45.611Z,100252.83
2018-09-22T23:00:15.116Z,100244.84
2018-09-22T23:02:44.633Z,100241.34
2018-09-22T23:05:14.330Z,100251.84
2018-09-22T23:07:43.633Z,100251.91
2018-09-22T23:10:13.063Z,100243.58
2018-09-22T23:12:42.581Z,100247.11
2018-09-22T23:15:12.135Z,100256.36
2018-09-22T23:17:42.499Z,100246.73
2018-09-22T23:20:12.492Z,100248.54
2018-09-22T23:22:42.464Z,100249.97
2018-09-22T23:25:11.806Z,100252.95
2018-09-22T23:27:41.494Z,100251.23
2018-09-22T23:30:11.244Z,100254.80
2018-09-22T23:32:40.920Z,100259.00
2018-09-22T23:35:10.392Z,100255.53
2018-09-22T23:37:40.087Z,100248.65
2018-09-22T23:40:09.425Z,100259.10
2018-09-22T23:42:38.902Z,100259.06
2018-09-22T23:45:08.694Z,100252.89
2018-09-22T23:47:38.287Z,100261.70
2018-09-22T23:50:07.908Z,100257.34
2018-09-22T23:52:37.659Z,100253.87
2018-09-22T23:55:07.282Z,100258.34
2018-09-22T23:57:36.743Z,100264.49
